• Join FlightAware (Why Join?)
  • Login
  • US Flag 
06:35AM EST


 

Airport Tracker/Info


-or-


 

Live Flight TrackerFlight Track Log ✈ SWA8500 ✈ 30-Apr-2013 ✈ KLAS - KGEG

Flight Track Log - Related Links

Times and Time Zones

All times are in EDT time to prevent confusion due to time zone crossing. See the SWA8500 flight status page for this flight to view local times or setup timezone preferences in your user account.

Time Position Orientation Groundspeed Altitude Reporting Facility
EDT Latitude Longitude Course Direction KTS MPH feet Rate Location/Type
11:04AM 36.0753 -115.1550 270° West 136 157 3,300  Level Los Angeles Center
11:05AM 36.0750 -115.2031 270° West 180 207 4,600 1,920 Climbing Los Angeles Center
11:05AM 36.0769 -115.2292 275° West 211 243 5,500 3,180 Climbing Los Angeles Center
11:06AM 36.0953 -115.2869 291° West 257 296 8,100 3,660 Climbing Los Angeles Center
11:06AM 36.1164 -115.2908 352° North 245 282 9,300 3,600 Climbing Los Angeles Center
11:08AM 36.1736 -115.2481 31° Northeast 267 307 13,100 3,000 Climbing Los Angeles Center
11:09AM 36.1958 -115.1375 76° East 348 400 15,600 3,060 Climbing Los Angeles Center
11:10AM 36.1972 -115.0056 89° East 383 441 19,500 3,960 Climbing Los Angeles Center
11:11AM 36.1992 -114.8372 89° East 406 467 23,800 3,480 Climbing Los Angeles Center
11:12AM 36.2625 -114.7219 56° Northeast 424 488 26,800 2,700 Climbing Los Angeles Center
11:13AM 36.3572 -114.6319 37° Northeast 430 495 29,400 2,460 Climbing Los Angeles Center
11:14AM 36.4547 -114.5397 37° Northeast 440 506 31,900 1,680 Climbing Los Angeles Center
11:15AM 36.5536 -114.4467 37° Northeast 446 513 33,000 480 Climbing Los Angeles Center
11:16AM 36.6597 -114.3672 31° Northeast 445 512 33,000 1,320 Level Los Angeles Center
11:17AM 36.7853 -114.2686 32° Northeast 445 512 35,800 1,920 Climbing Los Angeles Center
11:18AM 36.8872 -114.1892 32° Northeast 436 502 37,000 540 Climbing Los Angeles Center
11:19AM 36.9881 -114.1114 32° Northeast 429 494 37,000  Level Los Angeles Center
11:20AM 37.0889 -114.0322 32° Northeast 429 494 37,000  Level Los Angeles Center
11:21AM 37.1731 -113.9675 31° Northeast 429 494 37,000  Level Salt Lake Center
11:22AM 37.2739 -113.8883 32° Northeast 427 491 37,000  Level Salt Lake Center
11:23AM 37.3744 -113.8089 32° Northeast 427 491 37,000  Level Salt Lake Center
11:24AM 37.4753 -113.7275 33° Northeast 428 493 37,000  Level Salt Lake Center
11:25AM 37.5975 -113.6308 32° Northeast 431 496 37,000  Level Salt Lake Center
11:26AM 37.7000 -113.5489 32° Northeast 433 498 37,000  Level Salt Lake Center
11:27AM 37.8108 -113.5225 11° North 409 471 37,000 120 Level Salt Lake Center
11:28AM 37.9050 -113.5900 331° Northwest 389 448 37,300 1,320 Climbing Salt Lake Center
11:29AM 37.9942 -113.6689 325° Northwest 392 451 39,800 1,740 Climbing Salt Lake Center
11:30AM 38.0808 -113.7453 325° Northwest 381 438 41,000 540 Climbing Salt Lake Center
11:31AM 38.1669 -113.8206 326° Northwest 378 435 41,000  Level Salt Lake Center
11:32AM 38.2544 -113.8983 325° Northwest 382 440 41,000  Level Salt Lake Center
11:33AM 38.3592 -113.9917 325° Northwest 383 441 41,000  Level Salt Lake Center
11:34AM 38.4469 -114.0700 325° Northwest 384 442 41,000  Level Salt Lake Center
11:35AM 38.5339 -114.1492 325° Northwest 385 443 41,000  Level Salt Lake Center
11:36AM 38.6225 -114.2292 325° Northwest 389 448 41,000  Level Salt Lake Center
11:37AM 38.7106 -114.3081 325° Northwest 388 447 41,000  Level Salt Lake Center
11:38AM 38.7992 -114.3875 325° Northwest 388 447 41,000  Level Salt Lake Center
11:39AM 38.9036 -114.4847 324° Northwest 387 445 41,000  Level Salt Lake Center
11:40AM 38.9900 -114.5633 325° Northwest 382 440 41,000  Level Salt Lake Center
11:41AM 39.0756 -114.6419 325° Northwest 378 435 41,000  Level Salt Lake Center
11:42AM 39.1744 -114.6981 336° Northwest 380 437 41,000  Level Salt Lake Center
11:43AM 39.2806 -114.7022 358° North 394 453 41,000  Level Salt Lake Center
11:44AM 39.4019 -114.7081 358° North 392 451 41,000  Level Salt Lake Center
11:45AM 39.5067 -114.7108 359° North 394 453 41,000  Level Salt Lake Center
11:46AM 39.6267 -114.7172 358° North 386 444 41,000  Level Salt Lake Center
11:48AM 39.7306 -114.7214 358° North 381 438 41,000  Level Salt Lake Center
11:49AM 39.8361 -114.7272 358° North 380 437 41,000  Level Salt Lake Center
11:50AM 39.9419 -114.7325 358° North 380 437 41,000  Level Salt Lake Center
11:51AM 40.0489 -114.7378 358° North 383 441 41,000  Level Salt Lake Center
11:52AM 40.1558 -114.7422 358° North 384 442 41,000  Level Salt Lake Center
11:53AM 40.2853 -114.7494 358° North 386 444 41,000  Level Salt Lake Center
11:54AM 40.3911 -114.7547 358° North 383 441 41,000  Level Salt Lake Center
11:55AM 40.4969 -114.7583 359° North 381 438 41,000  Level Salt Lake Center
11:56AM 40.6036 -114.7650 357° North 382 440 41,000  Level Salt Lake Center
11:57AM 40.7100 -114.7703 358° North 383 441 41,000  Level Salt Lake Center
11:58AM 40.8297 -114.7764 358° North 381 438 41,000  Level Salt Lake Center
11:59AM 40.9286 -114.7808 358° North 375 432 41,000  Level Salt Lake Center
12:00PM 41.0464 -114.7867 358° North 380 437 41,000  Level Salt Lake Center
12:01PM 41.1544 -114.7922 358° North 385 443 41,000  Level Salt Lake Center
12:02PM 41.2644 -114.7975 358° North 390 449 41,000  Level Salt Lake Center
12:03PM 41.3767 -114.8047 357° North 399 459 41,000  Level Salt Lake Center
12:04PM 41.4900 -114.8094 358° North 406 467 41,000  Level Salt Lake Center
12:05PM 41.6181 -114.8167 358° North 413 475 41,000  Level Salt Lake Center
12:06PM 41.7289 -114.8217 358° North 415 478 41,000  Level Salt Lake Center
12:07PM 41.8575 -114.8311 357° North 416 479 41,000  Level Salt Lake Center
12:08PM 41.9689 -114.8375 358° North 418 481 41,000  Level Salt Lake Center
12:09PM 42.0794 -114.8411 359° North 416 479 41,000  Level Salt Lake Center
12:10PM 42.2031 -114.8456 358° North 408 470 41,000  Level Salt Lake Center
12:11PM 42.3181 -114.8511 358° North 412 474 41,000  Level Salt Lake Center
12:12PM 42.4339 -114.8594 357° North 416 479 41,000  Level Salt Lake Center
12:13PM 42.5472 -114.8653 358° North 411 473 41,000  Level Salt Lake Center
12:14PM 42.6764 -114.8722 358° North 411 473 41,000  Level Salt Lake Center
12:15PM 42.7792 -114.9047 347° North 401 461 41,000  Level Salt Lake Center
12:16PM 42.8908 -114.9650 338° Northwest 388 447 41,000  Level Salt Lake Center
12:18PM 43.0116 -115.0137 340° North  Level FlightAware Approximate
12:18PM 43.1033 -115.0753 340° North 395 455 41,000  Level Salt Lake Center
12:19PM 43.2014 -115.1281 339° North 396 456 41,000  Level Salt Lake Center
12:20PM 43.2997 -115.1794 339° North 394 453 41,000  Level Salt Lake Center
12:21PM 43.4144 -115.2414 339° North 396 456 41,000  Level Salt Lake Center
12:22PM 43.5142 -115.2939 339° North 400 460 41,000  Level Salt Lake Center
12:24PM 43.6300 -115.3553 339° North 401 461 41,000  Level Salt Lake Center
12:25PM 43.7286 -115.4075 339° North 395 455 41,000  Level Salt Lake Center
12:26PM 43.8442 -115.4706 339° North 399 459 41,000  Level Salt Lake Center
12:27PM 43.9439 -115.5242 339° North 401 461 41,000  Level Salt Lake Center
12:28PM 44.0433 -115.5778 339° North 401 461 41,000  Level Salt Lake Center
12:29PM 44.1592 -115.6408 339° North 401 461 41,000  Level Salt Lake Center
12:30PM 44.2594 -115.6947 339° North 403 464 41,000  Level Salt Lake Center
12:31PM 44.3772 -115.7603 338° Northwest 408 470 41,000  Level Salt Lake Center
12:32PM 44.4775 -115.8158 338° Northwest 410 472 41,000  Level Salt Lake Center
12:33PM 44.5956 -115.8817 338° Northwest 413 475 41,000  Level Salt Lake Center
12:34PM 44.6967 -115.9386 338° Northwest 412 474 41,000  Level Salt Lake Center
12:35PM 44.8156 -116.0044 339° North 412 474 41,000  Level Salt Lake Center
12:36PM 44.9164 -116.0614 338° Northwest 411 473 41,000  Level Salt Lake Center
12:37PM 45.0350 -116.1286 338° Northwest 411 473 41,000  Level Salt Lake Center
12:38PM 45.1372 -116.1856 339° North 412 474 41,000  Level Salt Lake Center
12:39PM 45.2547 -116.2533 338° Northwest 409 471 41,000  Level Salt Lake Center
12:40PM 45.3542 -116.3108 338° Northwest 406 467 41,000  Level Salt Lake Center
12:41PM 45.4225 -116.3469 340° North 407 468 41,000  Level Seattle Center
12:42PM 45.5228 -116.4061 338° Northwest 406 467 41,000  Level Seattle Center
12:43PM 45.6408 -116.4739 338° Northwest 408 470 41,000  Level Seattle Center
12:44PM 45.7417 -116.5322 338° Northwest 409 471 41,000  Level Seattle Center
12:45PM 45.8600 -116.5994 338° Northwest 410 472 41,000  Level Seattle Center
12:46PM 45.9622 -116.6608 337° Northwest 412 474 41,000 -1,260 Level Seattle Center
12:47PM 46.0664 -116.7208 338° Northwest 419 482 38,500 -2,460 Descending Seattle Center
12:48PM 46.1853 -116.7911 338° Northwest 417 480 36,000 -1,860 Descending Seattle Center
12:49PM 46.2867 -116.8494 338° Northwest 411 473 34,800 -2,220 Descending Seattle Center
12:50PM 46.3869 -116.9114 337° Northwest 407 468 31,500 -3,120 Descending Seattle Center
12:51PM 46.4961 -116.9753 338° Northwest 395 455 28,600 -2,700 Descending Seattle Center
12:52PM 46.5897 -117.0339 337° Northwest 375 432 26,100 -2,460 Descending Seattle Center
12:53PM 46.6781 -117.0861 338° Northwest 352 405 23,700 -2,280 Descending Seattle Center
12:54PM 46.7608 -117.1350 338° Northwest 329 379 21,500 -2,220 Descending Seattle Center
12:55PM 46.8450 -117.1858 338° Northwest 327 376 19,200 -2,280 Descending Seattle Center
12:56PM 46.9397 -117.2422 338° Northwest 335 386 16,900 -2,160 Descending Seattle Center
12:57PM 47.0214 -117.2844 341° North 315 362 14,900 -1,560 Descending Seattle Center
12:58PM 47.1097 -117.3017 352° North 322 371 13,800 -1,740 Descending Seattle Center
12:59PM 47.1986 -117.3225 351° North 302 348 11,400 -1,860 Descending Seattle Center
01:00PM 47.2811 -117.3392 352° North 301 346 10,100 -1,320 Descending Seattle Center
01:01PM 47.3569 -117.3578 351° North 282 325 8,800 -1,380 Descending Seattle Center
01:02PM 47.4297 -117.3747 351° North 268 308 7,300 -1,380 Descending Seattle Center
01:03PM 47.4981 -117.3419 18° North 261 300 6,000 -660 Descending Seattle Center
01:04PM 47.5689 -117.3053 19° North 254 292 6,000 -240 Level Seattle Center
01:05PM 47.6297 -117.2942 North 229 264 5,600 -240 Descending Seattle Center
01:06PM 47.6881 -117.2947 360° North 213 245 5,600 -360 Level Seattle Center
01:07PM 47.7181 -117.3500 309° West 196 226 4,900 -720 Descending Seattle Center
01:08PM 47.7019 -117.4169 250° West 186 214 4,200 -660 Descending Seattle Center
01:09PM 47.6722 -117.4578 223° Southwest 150 173 3,600 -660 Descending Seattle Center
01:10PM 47.6489 -117.4925 225° Southwest 126 145 2,900 -660 Descending Seattle Center
01:11PM 47.6275 -117.5247 225° Southwest 120 138 2,300 -600 Descending Seattle Center
01:13PM 47.6167 -117.5333 270° West  Level FlightAware Approximate